Hovedside
METAR-TAF:

METAR-TAF

Lufthavner :

Prins Said Ibrahim internasjonale lufthavn

Moroni, Komorene

breddegrad: 11-32S, lengdegrad: 043-16E, høyde over havet: 29 m

Gjeldene værobservasjon

Denne rapporten ble laget for 59 minutter siden, klokken 15:00 UTC
Vind 5 kt fra Nord-nordvest
Temperatur 28°C
Luftfuktighet 70%
Trykk 1012 hPa
Sikt 10 km eller mer
Få skyer i en høyde av 2000 ft

METAR: FMCH 301500Z 34005KT 9999 FEW020 28/22 Q1012 NOSIG

Tid: 18:59 (15:59 UTC)

Varsel

Denne rapporten ble laget for 4 timer og 59 minutter siden, klokken 11:00 UTC
Varsel gyldig fra 30. klokken 12 UTC til 01. klokken 18 UTC
Vind 10 kt fra Vest-sørvest
Sikt 10 km eller mer
Spredte skyer i en høyde av 2000 ft
Blir
fra 30. klokken 15 UTC til 30. klokken 17 UTC
Vind 5 kt fra Øst
Blir
fra 01. klokken 05 UTC til 01. klokken 07 UTC
Vind 10 kt fra Sørvest

TAF: FMCH 301100Z 3012/0118 24010KT 9999 SCT020 BECMG 3015/3017 10005KT BECMG 0105/0107 22010KT

Værobservasjoner og værvarsel for over 4000 flyplasser (METAR- og TAF-rapporter).

Tilgjengelige stasjoner er representert av de røde og gule prikkene på kartet.

Hold musepekeren over prikken for å se navnet på stasjonen.

Klikk så for å se værobservasjoner og -varsler.

For å forandre kartet kan du klikke på den grønne knappen med svart kryss for å zoome inn, på den grønne knappen med strek for å zoome ut, eller på de grønne pilene for å se tilstøtende kart.


METAR-TAF: